Time;durP1;ratioP1;P1;durP2;ratioP2;P2;SDS_P1;SDS_P2;PMS_P1;PMS_P2;Temp;Humidity;BMP_temperature;BMP_pressure;BME280_temperature;BME280_humidity;BME280_pressure;Samples;Min_cycle;Max_cycle;Signal;HPM_P1;HPM_P2
2023/08/05 00:01:07;;;;;;;1.63;0.80;;;24.30;52.50;;;;;;5063949;28;20049;-64
2023/08/05 00:03:33;;;;;;;2.63;0.95;;;24.30;52.50;;;;;;5043068;28;20040;-65
2023/08/05 00:05:59;;;;;;;1.98;0.75;;;24.30;52.50;;;;;;5062154;28;20161;-65
2023/08/05 00:08:25;;;;;;;1.02;0.68;;;24.30;52.50;;;;;;5071583;28;20178;-65
2023/08/05 00:10:51;;;;;;;1.42;0.90;;;24.30;52.50;;;;;;5060116;28;20055;-64
2023/08/05 00:13:16;;;;;;;2.28;0.70;;;24.30;52.50;;;;;;5065072;28;20029;-64
2023/08/05 00:15:43;;;;;;;2.72;0.93;;;24.30;52.50;;;;;;5040565;28;20052;-64
2023/08/05 00:18:10;;;;;;;1.65;0.70;;;24.30;52.60;;;;;;5069868;28;20244;-65
2023/08/05 00:20:36;;;;;;;1.23;0.82;;;24.30;52.50;;;;;;5048771;28;20064;-66
2023/08/05 00:23:02;;;;;;;1.08;0.68;;;24.30;52.50;;;;;;5066979;28;20357;-64
2023/08/05 00:25:28;;;;;;;2.22;0.63;;;24.30;52.50;;;;;;5062970;28;20380;-63
2023/08/05 00:27:54;;;;;;;1.60;0.73;;;24.30;53.20;;;;;;5039436;28;20045;-65
2023/08/05 00:30:20;;;;;;;2.72;0.90;;;24.30;52.50;;;;;;5057176;28;20098;-64
2023/08/05 00:32:46;;;;;;;1.48;0.77;;;24.30;52.50;;;;;;5060001;28;20458;-63
2023/08/05 00:35:12;;;;;;;1.63;0.80;;;24.20;52.50;;;;;;5030813;28;20370;-64
2023/08/05 00:37:38;;;;;;;1.75;0.80;;;24.20;52.50;;;;;;5060436;28;20029;-64
2023/08/05 00:40:05;;;;;;;1.00;0.80;;;24.20;52.50;;;;;;5044644;28;20056;-63
2023/08/05 00:42:31;;;;;;;1.40;0.70;;;24.20;52.50;;;;;;5039097;28;20388;-65
2023/08/05 00:44:57;;;;;;;1.90;0.80;;;24.20;52.50;;;;;;5054544;28;20121;-66
2023/08/05 00:47:23;;;;;;;1.10;0.65;;;24.20;52.50;;;;;;5062088;28;20040;-64
2023/08/05 00:49:54;;;;;;;1.38;0.90;;;24.20;52.50;;;;;;5065250;28;20304;-65
2023/08/05 00:52:22;;;;;;;1.55;0.60;;;24.20;52.50;;;;;;5065591;28;20367;-65
2023/08/05 00:54:49;;;;;;;1.80;0.93;;;24.20;52.50;;;;;;5067644;28;20021;-63
2023/08/05 00:57:17;;;;;;;1.52;0.80;;;24.20;52.50;;;;;;5047155;28;20152;-64
2023/08/05 00:59:43;;;;;;;1.58;0.88;;;24.20;52.50;;;;;;5035734;28;20042;-65
2023/08/05 01:02:09;;;;;;;1.92;0.90;;;24.20;52.50;;;;;;5047091;28;20308;-65
2023/08/05 01:04:35;;;;;;;1.25;0.80;;;24.20;52.50;;;;;;5044579;28;20408;-64
2023/08/05 01:07:02;;;;;;;2.10;0.90;;;24.10;52.40;;;;;;5056683;28;20036;-65
2023/08/05 01:09:30;;;;;;;1.50;0.85;;;24.20;52.50;;;;;;5061679;28;20025;-66
2023/08/05 01:11:56;;;;;;;1.30;0.80;;;24.20;52.50;;;;;;5056829;28;20469;-65
2023/08/05 01:14:22;;;;;;;1.08;0.73;;;24.10;52.40;;;;;;5049692;28;20432;-65
2023/08/05 01:16:48;;;;;;;1.00;0.60;;;24.20;52.50;;;;;;5064180;28;20024;-65
2023/08/05 01:19:22;;;;;;;1.95;1.00;;;24.10;52.40;;;;;;5077138;28;20025;-65
2023/08/05 01:21:59;;;;;;;1.83;0.90;;;24.10;52.40;;;;;;5066060;28;20033;-63
2023/08/05 01:25:03;;;;;;;0.90;0.70;;;24.10;52.40;;;;;;5058049;28;20024;-64
2023/08/05 01:27:32;;;;;;;1.60;0.88;;;24.10;52.40;;;;;;5051535;28;20123;-64
2023/08/05 01:29:59;;;;;;;1.10;0.70;;;24.10;52.50;;;;;;5065761;28;20062;-64
2023/08/05 01:32:27;;;;;;;1.13;0.63;;;24.10;52.40;;;;;;5044392;28;20017;-64
2023/08/05 01:34:53;;;;;;;1.48;0.98;;;24.10;52.50;;;;;;5052573;28;20056;-64
2023/08/05 01:37:21;;;;;;;1.70;1.00;;;24.10;52.40;;;;;;5054854;28;20402;-66
2023/08/05 01:39:46;;;;;;;1.30;1.00;;;24.10;52.40;;;;;;5044272;28;20017;-65
2023/08/05 01:42:12;;;;;;;1.52;0.80;;;24.10;52.50;;;;;;5050519;28;20093;-66
2023/08/05 01:44:38;;;;;;;0.65;0.57;;;24.10;52.50;;;;;;5050443;28;20333;-66
2023/08/05 01:47:04;;;;;;;1.00;0.70;;;24.10;52.50;;;;;;5053717;28;20097;-64
2023/08/05 01:49:30;;;;;;;1.55;1.10;;;24.10;52.50;;;;;;5069829;28;20052;-64
2023/08/05 01:51:56;;;;;;;1.77;0.90;;;24.10;52.50;;;;;;5061512;28;20083;-65
2023/08/05 01:54:22;;;;;;;1.13;0.85;;;24.10;52.50;;;;;;5063699;28;20052;-65
2023/08/05 01:56:48;;;;;;;0.75;0.70;;;24.10;52.50;;;;;;5069964;28;20024;-64
2023/08/05 01:59:15;;;;;;;1.70;0.75;;;24.10;52.60;;;;;;5047857;28;20037;-64
2023/08/05 02:01:47;;;;;;;1.80;1.10;;;24.00;52.50;;;;;;5057496;28;20383;-64
2023/08/05 02:04:14;;;;;;;0.88;0.75;;;24.10;52.60;;;;;;5052530;28;20354;-67
2023/08/05 02:06:40;;;;;;;1.08;0.70;;;24.10;52.70;;;;;;5065425;28;20028;-66
2023/08/05 02:09:07;;;;;;;1.33;0.90;;;24.00;52.60;;;;;;5074336;28;20021;-65
2023/08/05 02:11:34;;;;;;;2.05;0.90;;;24.00;52.60;;;;;;5070662;28;20043;-64
2023/08/05 02:14:00;;;;;;;1.90;1.00;;;24.00;52.60;;;;;;5053907;28;20086;-65
2023/08/05 02:16:26;;;;;;;1.35;0.70;;;24.00;52.70;;;;;;5064060;28;20086;-64
2023/08/05 02:18:52;;;;;;;1.73;1.13;;;24.00;52.70;;;;;;5053995;28;20024;-64
2023/08/05 02:21:18;;;;;;;1.33;0.77;;;24.00;52.70;;;;;;5065049;28;20086;-64
2023/08/05 02:23:44;;;;;;;1.27;0.80;;;24.00;52.70;;;;;;5044362;28;20033;-64
2023/08/05 02:26:10;;;;;;;1.00;0.90;;;24.00;52.70;;;;;;5070625;28;20029;-66
2023/08/05 02:28:36;;;;;;;1.55;1.02;;;24.00;52.70;;;;;;5045319;28;20444;-64
2023/08/05 02:31:02;;;;;;;1.60;0.80;;;24.00;52.70;;;;;;5066181;28;20024;-65
2023/08/05 02:33:28;;;;;;;1.58;0.75;;;24.00;52.70;;;;;;5076069;28;20024;-66
2023/08/05 02:36:01;;;;;;;0.85;0.80;;;24.00;52.70;;;;;;5064072;28;20035;-65
2023/08/05 02:38:27;;;;;;;1.63;0.80;;;24.00;52.70;;;;;;5046951;28;20389;-65
2023/08/05 02:40:55;;;;;;;1.92;0.80;;;24.00;52.80;;;;;;5070242;28;20035;-65
2023/08/05 02:43:22;;;;;;;2.00;0.90;;;24.00;52.70;;;;;;5063369;28;20492;-64
2023/08/05 02:45:55;;;;;;;0.90;0.70;;;24.00;52.70;;;;;;5045717;28;20382;-66
2023/08/05 02:48:25;;;;;;;2.08;0.90;;;24.00;52.70;;;;;;5066546;28;20036;-66
2023/08/05 02:50:52;;;;;;;2.15;0.93;;;24.00;52.80;;;;;;5048886;28;20116;-66
2023/08/05 02:53:19;;;;;;;1.63;0.82;;;24.00;52.70;;;;;;5060658;28;20101;-65
2023/08/05 02:55:45;;;;;;;1.30;0.88;;;24.00;52.70;;;;;;5054269;28;20024;-64
2023/08/05 02:58:11;;;;;;;0.95;0.80;;;23.90;52.70;;;;;;5062697;28;20336;-63
2023/08/05 03:00:37;;;;;;;1.92;0.77;;;24.00;53.40;;;;;;5038870;28;20034;-64
2023/08/05 03:03:04;;;;;;;1.20;0.70;;;24.00;52.80;;;;;;5066227;28;20119;-64
2023/08/05 03:05:30;;;;;;;1.80;0.95;;;23.90;52.70;;;;;;5042700;28;20139;-63
2023/08/05 03:07:56;;;;;;;1.23;0.80;;;23.90;52.70;;;;;;5066412;28;20147;-65
2023/08/05 03:10:22;;;;;;;1.48;0.98;;;23.90;52.70;;;;;;5046019;28;20127;-64
2023/08/05 03:12:48;;;;;;;1.23;1.00;;;23.90;52.70;;;;;;5074607;28;20351;-64
2023/08/05 03:15:14;;;;;;;1.15;0.80;;;23.90;52.70;;;;;;5037672;28;20017;-64
2023/08/05 03:17:40;;;;;;;2.38;1.05;;;23.90;53.40;;;;;;5048714;28;20047;-63
2023/08/05 03:20:25;;;;;;;1.33;0.93;;;23.90;52.80;;;;;;5044815;28;20056;-66
2023/08/05 03:22:55;;;;;;;1.30;0.77;;;23.90;52.80;;;;;;5046039;28;20083;-64
2023/08/05 03:25:24;;;;;;;1.33;0.90;;;23.90;52.80;;;;;;5043752;28;20385;-66
2023/08/05 03:27:53;;;;;;;1.63;0.80;;;23.90;52.80;;;;;;5032250;28;20073;-65
2023/08/05 03:30:20;;;;;;;2.42;0.95;;;23.90;52.80;;;;;;5052124;28;20125;-65
2023/08/05 03:32:49;;;;;;;1.50;0.85;;;23.90;52.80;;;;;;5075404;28;20036;-63
2023/08/05 03:35:16;;;;;;;1.70;0.90;;;23.90;52.80;;;;;;5046945;28;20033;-66
2023/08/05 03:37:43;;;;;;;1.40;0.77;;;23.90;52.80;;;;;;5065831;28;20029;-65
2023/08/05 03:40:09;;;;;;;2.35;0.85;;;23.90;52.90;;;;;;5044191;28;20139;-66
2023/08/05 03:42:35;;;;;;;1.88;0.80;;;23.90;52.90;;;;;;5062622;28;20031;-66
2023/08/05 03:45:01;;;;;;;1.30;1.00;;;23.90;52.90;;;;;;5066091;28;20106;-64
2023/08/05 03:47:27;;;;;;;1.20;0.80;;;23.80;52.80;;;;;;5036104;28;20029;-63
2023/08/05 03:49:53;;;;;;;2.03;1.08;;;23.80;52.80;;;;;;5063193;28;20105;-63
2023/08/05 03:52:19;;;;;;;1.90;1.02;;;23.80;52.80;;;;;;5044393;28;20032;-65
2023/08/05 03:54:45;;;;;;;1.92;1.02;;;23.80;52.80;;;;;;5072799;28;20040;-66
2023/08/05 03:57:11;;;;;;;1.42;0.90;;;23.80;52.80;;;;;;5064757;28;20439;-65
2023/08/05 03:59:40;;;;;;;1.95;1.02;;;23.80;52.80;;;;;;5042211;28;20021;-64
2023/08/05 04:02:07;;;;;;;2.08;0.93;;;23.80;52.80;;;;;;5041658;28;20025;-64
2023/08/05 04:04:33;;;;;;;1.13;0.68;;;23.80;52.80;;;;;;5063598;28;20036;-64
2023/08/05 04:06:59;;;;;;;1.15;0.80;;;23.80;52.80;;;;;;5048966;28;20048;-64
2023/08/05 04:09:25;;;;;;;0.88;0.75;;;23.80;52.80;;;;;;5048324;28;20480;-65
2023/08/05 04:11:53;;;;;;;1.73;0.85;;;23.80;52.80;;;;;;5071127;28;20052;-63
2023/08/05 04:14:20;;;;;;;1.25;0.80;;;23.80;52.80;;;;;;5048815;28;20029;-64
2023/08/05 04:16:51;;;;;;;1.58;0.90;;;23.80;52.90;;;;;;5048638;28;20029;-63
2023/08/05 04:19:18;;;;;;;1.67;1.10;;;23.80;52.90;;;;;;5045506;28;20024;-63
2023/08/05 04:21:47;;;;;;;2.20;1.10;;;23.80;52.90;;;;;;5044854;28;20219;-63
2023/08/05 04:24:15;;;;;;;0.95;0.73;;;23.80;52.90;;;;;;5060218;28;20063;-64
2023/08/05 04:26:40;;;;;;;1.00;0.75;;;23.80;52.90;;;;;;5030946;28;20025;-65
2023/08/05 04:29:09;;;;;;;0.98;0.80;;;23.80;52.90;;;;;;5069544;28;20040;-64
2023/08/05 04:31:37;;;;;;;1.50;1.02;;;23.80;52.90;;;;;;5064951;28;20042;-64
2023/08/05 04:34:03;;;;;;;1.25;0.80;;;23.80;52.90;;;;;;5060178;28;20110;-65
2023/08/05 04:36:30;;;;;;;1.08;0.70;;;23.80;53.00;;;;;;5063582;28;20105;-63
2023/08/05 04:38:59;;;;;;;1.17;0.95;;;23.80;53.00;;;;;;5054092;28;20067;-65
2023/08/05 04:41:25;;;;;;;1.65;0.82;;;23.80;53.00;;;;;;5062711;28;20020;-64
2023/08/05 04:43:50;;;;;;;1.13;0.90;;;23.80;53.00;;;;;;5059091;28;20139;-66
2023/08/05 04:46:16;;;;;;;1.63;0.77;;;23.80;53.10;;;;;;5064407;28;20041;-64
2023/08/05 04:48:42;;;;;;;1.50;0.90;;;23.80;53.10;;;;;;5064685;28;20045;-67
2023/08/05 04:51:08;;;;;;;1.50;1.05;;;23.80;53.10;;;;;;5063380;28;20313;-65
2023/08/05 04:53:34;;;;;;;1.95;0.90;;;23.80;53.10;;;;;;5061142;28;20308;-64
2023/08/05 04:56:00;;;;;;;1.15;0.80;;;23.80;53.10;;;;;;5061234;28;20024;-64
2023/08/05 04:58:26;;;;;;;0.93;0.80;;;23.80;53.10;;;;;;5059043;28;21476;-65
2023/08/05 05:00:56;;;;;;;1.00;0.90;;;23.80;53.10;;;;;;5063067;28;20440;-64
2023/08/05 05:03:22;;;;;;;1.27;0.80;;;23.80;53.10;;;;;;5059625;28;20025;-65
2023/08/05 05:05:48;;;;;;;3.22;0.95;;;23.80;53.20;;;;;;5059707;28;20051;-64
2023/08/05 05:08:14;;;;;;;1.77;0.90;;;23.70;53.10;;;;;;5062374;28;20048;-64
2023/08/05 05:10:45;;;;;;;1.48;0.85;;;23.80;53.30;;;;;;5060788;28;20424;-64
2023/08/05 05:13:11;;;;;;;1.70;0.80;;;23.80;53.90;;;;;;5057421;28;20016;-65
2023/08/05 05:15:37;;;;;;;1.17;0.73;;;23.70;53.30;;;;;;5057257;28;20093;-65
2023/08/05 05:18:03;;;;;;;1.20;1.10;;;23.80;53.30;;;;;;5063898;28;20047;-65
2023/08/05 05:20:29;;;;;;;0.98;0.90;;;23.80;53.40;;;;;;5038654;28;20353;-66
2023/08/05 05:22:55;;;;;;;1.30;1.00;;;23.80;53.40;;;;;;5059002;28;20117;-64
2023/08/05 05:25:22;;;;;;;1.45;1.00;;;23.80;53.40;;;;;;5061804;28;20028;-64
2023/08/05 05:27:48;;;;;;;1.40;0.90;;;23.80;53.40;;;;;;5062581;28;20041;-65
2023/08/05 05:30:14;;;;;;;1.80;1.00;;;23.80;53.40;;;;;;5062943;28;20274;-65
2023/08/05 05:32:40;;;;;;;0.93;0.77;;;23.80;53.40;;;;;;5043087;28;20033;-64
2023/08/05 05:35:06;;;;;;;1.13;0.80;;;23.80;53.40;;;;;;5057708;28;20142;-65
2023/08/05 05:37:32;;;;;;;1.35;1.10;;;23.70;53.40;;;;;;5061980;28;20050;-65
2023/08/05 05:39:58;;;;;;;1.10;0.80;;;23.80;53.40;;;;;;5061920;28;20393;-64
2023/08/05 05:42:24;;;;;;;1.65;0.90;;;23.80;53.40;;;;;;5062264;28;20594;-67
2023/08/05 05:44:52;;;;;;;1.08;0.77;;;23.80;53.50;;;;;;5059262;28;20327;-64
2023/08/05 05:47:21;;;;;;;1.58;1.20;;;23.80;53.50;;;;;;5065362;28;20087;-64
2023/08/05 05:49:47;;;;;;;1.80;1.05;;;23.80;53.50;;;;;;5061363;28;20040;-64
2023/08/05 05:52:16;;;;;;;1.10;0.90;;;23.80;53.50;;;;;;5059541;28;20335;-63
2023/08/05 05:54:45;;;;;;;2.80;1.00;;;23.80;53.50;;;;;;5055801;28;20039;-65
2023/08/05 05:57:10;;;;;;;1.45;1.05;;;23.80;53.50;;;;;;5062753;28;20029;-64
2023/08/05 05:59:38;;;;;;;1.80;1.25;;;23.80;53.50;;;;;;5056509;28;20028;-61
2023/08/05 06:02:07;;;;;;;1.55;1.20;;;23.80;53.50;;;;;;5061302;28;20039;-64
2023/08/05 06:04:33;;;;;;;1.63;1.10;;;23.80;53.60;;;;;;5058490;28;20025;-66
2023/08/05 06:07:01;;;;;;;2.00;1.23;;;23.80;54.00;;;;;;5062869;28;20043;-66
2023/08/05 06:09:27;;;;;;;1.30;1.02;;;23.80;53.80;;;;;;5070301;28;20102;-64
2023/08/05 06:11:53;;;;;;;1.65;1.00;;;23.80;53.90;;;;;;5065988;28;20066;-64
2023/08/05 06:14:21;;;;;;;1.48;1.05;;;23.80;53.80;;;;;;5065647;28;20378;-66
2023/08/05 06:16:46;;;;;;;1.27;1.00;;;23.80;53.90;;;;;;5056112;28;20090;-66
2023/08/05 06:19:12;;;;;;;1.23;0.90;;;23.80;53.90;;;;;;5073443;28;20353;-65
2023/08/05 06:21:40;;;;;;;1.27;1.00;;;23.80;53.90;;;;;;5074613;28;20342;-66
2023/08/05 06:24:05;;;;;;;1.38;1.02;;;23.80;53.90;;;;;;5055321;28;20029;-66
2023/08/05 06:26:31;;;;;;;1.85;1.00;;;23.80;53.90;;;;;;5066717;28;20509;-66
2023/08/05 06:28:57;;;;;;;1.10;0.95;;;23.80;53.90;;;;;;5074926;28;20041;-66
2023/08/05 06:31:23;;;;;;;1.33;1.00;;;23.80;54.00;;;;;;5068063;28;20032;-64
2023/08/05 06:33:49;;;;;;;1.58;1.02;;;23.80;54.00;;;;;;5068194;28;20086;-64
2023/08/05 06:36:15;;;;;;;1.75;0.90;;;23.80;54.00;;;;;;5057148;28;20050;-66
2023/08/05 06:38:41;;;;;;;1.35;1.08;;;23.80;54.00;;;;;;5068405;28;20029;-64
2023/08/05 06:41:07;;;;;;;1.85;1.08;;;23.80;54.00;;;;;;5071567;28;20403;-66
2023/08/05 06:43:33;;;;;;;2.47;1.50;;;23.80;54.00;;;;;;5054484;28;20043;-66
2023/08/05 06:45:59;;;;;;;1.40;1.10;;;23.80;54.00;;;;;;5068633;28;20204;-66
2023/08/05 06:48:24;;;;;;;2.75;1.65;;;23.80;54.00;;;;;;5054619;28;20037;-64
2023/08/05 06:50:50;;;;;;;1.67;1.15;;;23.80;54.00;;;;;;5067516;28;20416;-64
2023/08/05 06:53:16;;;;;;;1.60;1.08;;;23.90;54.10;;;;;;5059689;28;20324;-65
2023/08/05 06:55:42;;;;;;;3.15;1.55;;;23.90;54.10;;;;;;5065261;28;20024;-65
2023/08/05 06:58:08;;;;;;;2.45;1.40;;;23.90;54.10;;;;;;5067074;28;20185;-65
2023/08/05 07:00:34;;;;;;;4.55;1.30;;;23.90;54.10;;;;;;5047314;28;20032;-65
2023/08/05 07:03:01;;;;;;;2.70;1.27;;;23.90;54.10;;;;;;5060225;28;20021;-66
2023/08/05 07:05:29;;;;;;;2.33;1.17;;;23.90;54.10;;;;;;5060930;28;20404;-65
2023/08/05 07:07:55;;;;;;;1.85;1.25;;;23.90;54.10;;;;;;5070882;28;20041;-65
2023/08/05 07:10:21;;;;;;;2.25;1.45;;;24.00;54.20;;;;;;5067787;28;20043;-65
2023/08/05 07:12:48;;;;;;;1.67;1.10;;;24.00;54.20;;;;;;5064213;28;20028;-63
2023/08/05 07:15:14;;;;;;;3.90;1.50;;;24.00;54.20;;;;;;5053025;28;20041;-63
2023/08/05 07:17:41;;;;;;;3.47;1.60;;;24.00;54.20;;;;;;5065091;28;20040;-65
2023/08/05 07:20:08;;;;;;;2.78;1.50;;;24.00;54.20;;;;;;5071626;28;20025;-65
2023/08/05 07:22:35;;;;;;;1.42;1.33;;;24.00;54.30;;;;;;5046095;28;20032;-64
2023/08/05 07:25:00;;;;;;;2.67;1.80;;;24.00;54.30;;;;;;5065931;28;20028;-63
2023/08/05 07:27:27;;;;;;;2.33;1.60;;;24.00;54.30;;;;;;5065333;28;20117;-65
2023/08/05 07:29:53;;;;;;;2.63;1.70;;;24.00;54.40;;;;;;5062685;28;20032;-65
2023/08/05 07:32:19;;;;;;;2.75;1.70;;;24.00;54.30;;;;;;5046676;28;20317;-64
2023/08/05 07:34:47;;;;;;;2.63;1.88;;;24.10;54.40;;;;;;5070020;28;20336;-65
2023/08/05 07:37:14;;;;;;;2.75;1.73;;;24.10;54.40;;;;;;5075558;28;20028;-65
2023/08/05 07:39:46;;;;;;;3.72;2.00;;;24.10;54.40;;;;;;5067361;28;20036;-66
2023/08/05 07:42:14;;;;;;;2.35;1.65;;;24.10;54.30;;;;;;5081300;28;20407;-66
2023/08/05 07:44:40;;;;;;;3.42;1.70;;;24.10;54.30;;;;;;5067692;28;20107;-66
2023/08/05 07:47:06;;;;;;;5.20;1.80;;;24.10;54.20;;;;;;5064535;28;20044;-64
2023/08/05 07:49:32;;;;;;;2.80;1.70;;;24.10;54.20;;;;;;5063623;28;20036;-66
2023/08/05 07:51:58;;;;;;;3.70;1.90;;;24.10;54.70;;;;;;5066188;28;21289;-66
2023/08/05 07:54:25;;;;;;;2.10;1.50;;;24.20;54.10;;;;;;5060056;28;20097;-62
2023/08/05 07:56:52;;;;;;;3.03;1.73;;;24.20;54.00;;;;;;5068179;28;20029;-65
2023/08/05 07:59:20;;;;;;;4.95;2.10;;;24.20;54.00;;;;;;5057666;28;20316;-66
2023/08/05 08:01:46;;;;;;;3.25;1.60;;;24.20;54.00;;;;;;5068925;28;20114;-66
2023/08/05 08:04:14;;;;;;;3.55;1.75;;;24.20;54.00;;;;;;5075206;28;20043;-65
2023/08/05 08:06:43;;;;;;;2.95;1.77;;;24.20;53.90;;;;;;5051364;28;20016;-64
2023/08/05 08:09:08;;;;;;;3.80;1.40;;;24.20;53.80;;;;;;5050717;28;20164;-65
2023/08/05 08:11:34;;;;;;;2.95;1.85;;;24.20;53.80;;;;;;5065901;28;20038;-66
2023/08/05 08:14:00;;;;;;;3.15;1.42;;;24.20;53.60;;;;;;5061210;28;20025;-65
2023/08/05 08:16:26;;;;;;;4.15;1.67;;;24.30;53.60;;;;;;5082543;28;20048;-66
2023/08/05 08:18:52;;;;;;;2.72;1.80;;;24.30;53.60;;;;;;5062652;28;20424;-66
2023/08/05 08:21:18;;;;;;;3.80;1.80;;;24.30;53.50;;;;;;5065240;28;20029;-63
2023/08/05 08:23:44;;;;;;;4.35;1.55;;;24.30;53.50;;;;;;5062228;28;20028;-63
2023/08/05 08:26:10;;;;;;;4.68;2.13;;;24.30;53.80;;;;;;5060640;28;20056;-66
2023/08/05 08:28:36;;;;;;;3.72;1.90;;;24.30;54.00;;;;;;5061057;28;20068;-67
2023/08/05 08:31:02;;;;;;;2.33;1.40;;;24.30;53.90;;;;;;5067095;28;20036;-66
2023/08/05 08:33:28;;;;;;;4.22;1.90;;;24.40;53.80;;;;;;5072417;28;20430;-66
2023/08/05 08:35:54;;;;;;;3.08;1.50;;;24.40;53.60;;;;;;5078425;28;20093;-65
2023/08/05 08:38:23;;;;;;;3.20;1.42;;;24.40;53.40;;;;;;5067493;28;20039;-66
2023/08/05 08:40:56;;;;;;;1.52;1.40;;;24.40;53.20;;;;;;5074258;28;20024;-66
2023/08/05 08:43:22;;;;;;;1.92;1.67;;;24.40;53.00;;;;;;5084096;28;20035;-66
2023/08/05 08:45:52;;;;;;;2.45;1.50;;;24.40;52.90;;;;;;5080993;28;20320;-66
2023/08/05 08:48:23;;;;;;;1.92;1.60;;;24.40;52.70;;;;;;5085748;28;20043;-66
2023/08/05 08:50:52;;;;;;;4.03;2.13;;;24.40;52.60;;;;;;5079449;28;20074;-65
2023/08/05 08:53:20;;;;;;;4.38;2.00;;;24.40;52.60;;;;;;5075264;28;20043;-67
2023/08/05 08:55:47;;;;;;;2.92;1.77;;;24.40;52.50;;;;;;5079512;28;20034;-67
2023/08/05 08:58:13;;;;;;;3.08;1.73;;;24.50;52.50;;;;;;5082883;28;20246;-66
2023/08/05 09:00:39;;;;;;;3.17;1.70;;;24.50;52.50;;;;;;5081044;28;20032;-64
2023/08/05 09:03:06;;;;;;;2.38;1.40;;;24.50;52.50;;;;;;5079739;28;20308;-62
2023/08/05 09:05:41;;;;;;;2.80;1.50;;;24.50;52.50;;;;;;5080196;28;20038;-68
2023/08/05 09:08:07;;;;;;;1.92;1.40;;;24.60;52.40;;;;;;5056658;28;20161;-66
2023/08/05 09:10:33;;;;;;;1.42;1.15;;;24.60;52.40;;;;;;5063220;28;20024;-66
2023/08/05 09:13:00;;;;;;;3.15;1.40;;;24.60;52.30;;;;;;5065476;28;20056;-63
2023/08/05 09:15:46;;;;;;;2.58;1.60;;;24.60;52.30;;;;;;5066566;28;20103;-63
2023/08/05 09:18:12;;;;;;;2.88;1.50;;;24.70;52.30;;;;;;5073364;28;20032;-65
2023/08/05 09:20:38;;;;;;;3.72;1.55;;;24.70;52.30;;;;;;5075879;28;20033;-64
2023/08/05 09:23:07;;;;;;;3.78;1.52;;;24.80;52.20;;;;;;5079294;28;20027;-62
2023/08/05 09:25:38;;;;;;;4.10;1.30;;;24.80;52.20;;;;;;5079534;28;20373;-66
2023/08/05 09:28:06;;;;;;;2.60;1.38;;;24.80;52.10;;;;;;5080113;28;20059;-64
2023/08/05 09:30:35;;;;;;;1.95;1.40;;;24.80;52.10;;;;;;5082366;28;20035;-61
2023/08/05 09:33:01;;;;;;;2.85;1.50;;;24.90;52.00;;;;;;5082990;28;20051;-61
2023/08/05 09:35:27;;;;;;;1.98;1.38;;;24.90;52.00;;;;;;5083786;28;20016;-62
2023/08/05 09:37:54;;;;;;;2.58;1.48;;;24.90;51.90;;;;;;5059540;28;20059;-64
2023/08/05 09:40:36;;;;;;;1.27;1.05;;;24.90;51.80;;;;;;5084275;28;20421;-64
2023/08/05 09:43:03;;;;;;;2.03;1.38;;;24.90;51.70;;;;;;5083612;28;20033;-66
2023/08/05 09:45:32;;;;;;;2.90;1.27;;;25.00;51.70;;;;;;5080173;28;20057;-66
2023/08/05 09:48:03;;;;;;;1.30;1.10;;;25.00;51.60;;;;;;5085857;28;20137;-68
2023/08/05 09:50:36;;;;;;;1.70;1.27;;;25.00;51.50;;;;;;5084245;28;20024;-67
2023/08/05 09:53:06;;;;;;;1.50;1.20;;;25.00;51.50;;;;;;5084079;28;20122;-65
2023/08/05 09:55:33;;;;;;;2.58;1.25;;;25.00;51.40;;;;;;5087454;28;20032;-63
2023/08/05 09:58:00;;;;;;;3.83;1.10;;;25.10;51.40;;;;;;5086122;28;20024;-63
2023/08/05 10:00:28;;;;;;;2.33;1.40;;;25.10;51.40;;;;;;5082944;28;20140;-66
2023/08/05 10:02:54;;;;;;;3.33;1.30;;;25.10;51.30;;;;;;5081295;28;20073;-68
2023/08/05 10:05:25;;;;;;;1.40;1.15;;;25.10;51.10;;;;;;5085465;28;20043;-64
2023/08/05 10:07:53;;;;;;;1.77;1.20;;;25.20;51.20;;;;;;5068922;28;20765;-64
2023/08/05 10:10:21;;;;;;;2.58;1.30;;;25.20;51.10;;;;;;5077693;28;20023;-64
2023/08/05 10:12:52;;;;;;;1.15;0.93;;;25.20;50.90;;;;;;5069646;28;20067;-64
2023/08/05 10:15:27;;;;;;;1.98;1.25;;;25.20;50.70;;;;;;5048408;28;20173;-64
2023/08/05 10:17:55;;;;;;;1.77;1.15;;;25.20;50.50;;;;;;5066828;28;20115;-62
2023/08/05 10:20:21;;;;;;;1.10;1.00;;;25.30;50.50;;;;;;5066570;28;20112;-63
2023/08/05 10:23:04;;;;;;;3.40;1.60;;;25.20;50.20;;;;;;5071288;28;20499;-64
2023/08/05 10:25:49;;;;;;;7.97;1.50;;;25.30;50.20;;;;;;5068494;28;20098;-64
2023/08/05 10:28:27;;;;;;;3.55;1.10;;;25.30;50.10;;;;;;5065917;28;20322;-64
2023/08/05 10:30:56;;;;;;;2.25;0.95;;;25.30;50.00;;;;;;5079442;28;20439;-64
2023/08/05 10:33:25;;;;;;;2.17;1.20;;;25.30;49.90;;;;;;5065485;28;20103;-63
2023/08/05 10:36:07;;;;;;;4.47;1.13;;;25.30;49.80;;;;;;5065791;28;20093;-63
2023/08/05 10:38:43;;;;;;;3.00;1.33;;;25.30;49.80;;;;;;5063595;28;20199;-69
2023/08/05 10:41:10;;;;;;;1.35;1.10;;;25.30;50.00;;;;;;5069879;28;20032;-65
2023/08/05 10:43:40;;;;;;;1.63;0.80;;;25.30;50.00;;;;;;5067601;28;20029;-66
2023/08/05 10:46:06;;;;;;;1.25;1.10;;;25.30;50.00;;;;;;5072224;28;20060;-65
2023/08/05 10:48:48;;;;;;;2.00;1.00;;;25.40;50.00;;;;;;5039538;28;20040;-66
2023/08/05 10:51:17;;;;;;;2.80;1.25;;;25.40;49.90;;;;;;5062696;28;20031;-67
2023/08/05 10:53:51;;;;;;;2.00;1.08;;;25.50;49.80;;;;;;5074969;28;20024;-66
2023/08/05 10:56:17;;;;;;;1.73;1.00;;;25.60;49.70;;;;;;5048808;28;20033;-65
2023/08/05 10:58:50;;;;;;;1.27;1.13;;;25.70;49.60;;;;;;5068598;28;20035;-67
2023/08/05 11:01:18;;;;;;;2.28;1.05;;;25.80;49.40;;;;;;5069721;28;20025;-66
2023/08/05 11:03:47;;;;;;;1.55;1.00;;;25.90;49.30;;;;;;5060496;28;20036;-68
2023/08/05 11:06:15;;;;;;;1.33;0.90;;;26.00;49.00;;;;;;5062348;28;20036;-66
2023/08/05 11:08:43;;;;;;;1.10;0.77;;;26.10;49.00;;;;;;5067820;28;20044;-65
2023/08/05 11:11:11;;;;;;;1.23;0.93;;;26.20;48.80;;;;;;5066840;28;20020;-69
2023/08/05 11:13:38;;;;;;;2.65;1.10;;;26.20;48.60;;;;;;5064440;28;20056;-67
2023/08/05 11:16:09;;;;;;;0.98;0.88;;;26.30;48.40;;;;;;5058929;28;20020;-65
2023/08/05 11:18:35;;;;;;;1.02;0.73;;;26.40;48.30;;;;;;5063353;28;20017;-65
2023/08/05 11:21:04;;;;;;;1.20;0.95;;;26.40;48.10;;;;;;5070936;28;20033;-66
2023/08/05 11:23:30;;;;;;;1.10;0.80;;;26.50;48.00;;;;;;5076491;28;20468;-66
2023/08/05 11:25:59;;;;;;;3.58;0.90;;;26.60;48.00;;;;;;5064997;28;20157;-66
2023/08/05 11:28:25;;;;;;;1.63;1.00;;;26.70;48.00;;;;;;5074309;28;20310;-65
2023/08/05 11:30:53;;;;;;;1.00;0.90;;;26.70;47.90;;;;;;5066172;28;20051;-66
2023/08/05 11:33:18;;;;;;;0.80;0.80;;;26.80;47.90;;;;;;5047187;28;20069;-66
2023/08/05 11:35:46;;;;;;;3.70;1.00;;;26.80;47.80;;;;;;5051787;28;20043;-65
2023/08/05 11:38:18;;;;;;;1.95;1.33;;;26.90;47.70;;;;;;5069568;28;20021;-63
2023/08/05 11:40:57;;;;;;;1.27;0.90;;;26.90;47.50;;;;;;5062057;28;20188;-66
2023/08/05 11:43:24;;;;;;;0.95;0.90;;;27.00;47.40;;;;;;5047408;28;20034;-65
2023/08/05 11:45:51;;;;;;;1.30;0.80;;;27.00;47.40;;;;;;5055058;28;20136;-66
2023/08/05 11:48:25;;;;;;;1.55;0.93;;;27.00;47.30;;;;;;5065652;28;20079;-67
2023/08/05 11:50:58;;;;;;;;;;;27.00;47.10;;;;;;5039363;28;20041;-68
2023/08/05 11:53:26;;;;;;;2.00;0.93;;;27.00;47.20;;;;;;5034908;28;19909;-64
2023/08/05 11:55:52;;;;;;;3.60;0.98;;;27.00;47.10;;;;;;5042792;28;20128;-65
2023/08/05 11:58:18;;;;;;;1.25;0.77;;;27.00;47.00;;;;;;5046343;28;20036;-66
2023/08/05 12:00:51;;;;;;;1.50;0.80;;;26.90;46.90;;;;;;5052764;28;20032;-65
2023/08/05 12:03:18;;;;;;;1.13;0.90;;;27.00;46.80;;;;;;5065934;28;20071;-67
2023/08/05 12:05:46;;;;;;;1.83;0.80;;;27.00;46.80;;;;;;5064806;28;20060;-65
2023/08/05 12:08:33;;;;;;;1.58;1.00;;;27.00;46.80;;;;;;5037862;28;20488;-65
2023/08/05 12:10:58;;;;;;;1.05;0.80;;;27.00;46.70;;;;;;5045181;28;20032;-62
2023/08/05 12:13:25;;;;;;;1.38;0.88;;;27.00;46.80;;;;;;5064993;28;20093;-66
2023/08/05 12:15:51;;;;;;;1.10;0.88;;;27.00;46.80;;;;;;5053331;28;20124;-64
2023/08/05 12:18:18;;;;;;;1.88;0.90;;;26.90;46.80;;;;;;5068164;28;20036;-66
2023/08/05 12:20:47;;;;;;;1.40;0.90;;;26.90;46.90;;;;;;5070330;28;20066;-67
2023/08/05 12:23:13;;;;;;;2.78;0.80;;;26.90;47.00;;;;;;5063610;28;20028;-68
2023/08/05 12:25:38;;;;;;;1.38;1.00;;;26.80;47.10;;;;;;5050899;28;20450;-63
2023/08/05 12:28:04;;;;;;;1.52;0.82;;;26.80;47.20;;;;;;5068454;28;20116;-69
2023/08/05 12:30:30;;;;;;;1.15;0.80;;;26.70;47.40;;;;;;5045155;28;20024;-68
2023/08/05 12:32:58;;;;;;;1.08;0.70;;;26.70;47.50;;;;;;5059924;28;20028;-64
2023/08/05 12:35:25;;;;;;;0.63;0.55;;;26.60;47.60;;;;;;5060391;28;20051;-64
2023/08/05 12:37:51;;;;;;;0.73;0.65;;;26.60;47.80;;;;;;5055170;28;20118;-67
2023/08/05 12:40:17;;;;;;;1.90;0.80;;;26.50;47.90;;;;;;5063059;28;20046;-65
2023/08/05 12:42:43;;;;;;;1.77;0.80;;;26.50;48.00;;;;;;5078885;28;20029;-67
2023/08/05 12:45:09;;;;;;;1.60;0.70;;;26.40;48.00;;;;;;5082028;28;20496;-66
2023/08/05 12:47:36;;;;;;;1.35;0.70;;;26.40;48.20;;;;;;5082445;28;20123;-66
2023/08/05 12:50:04;;;;;;;1.45;0.80;;;26.30;48.20;;;;;;5076257;28;20224;-64